sensor_id;sensor_type;location;lat;lon;timestamp;pressure;altitude;pressure_sealevel;temperature;humidity
11339;BME280;5724;42.684;23.252;2023-01-28T00:01:13;93684.53;;;-1.89;100.00
11339;BME280;5724;42.684;23.252;2023-01-28T00:03:39;93701.19;;;-2.06;100.00
11339;BME280;5724;42.684;23.252;2023-01-28T00:06:10;93696.59;;;-2.19;100.00
11339;BME280;5724;42.684;23.252;2023-01-28T00:08:36;93700.75;;;-2.26;100.00
11339;BME280;5724;42.684;23.252;2023-01-28T00:11:04;93702.22;;;-2.34;100.00
11339;BME280;5724;42.684;23.252;2023-01-28T00:13:30;93700.22;;;-2.42;100.00
11339;BME280;5724;42.684;23.252;2023-01-28T00:15:58;93709.88;;;-2.27;100.00
11339;BME280;5724;42.684;23.252;2023-01-28T00:18:25;93720.88;;;-2.29;100.00
11339;BME280;5724;42.684;23.252;2023-01-28T00:23:23;93715.88;;;-2.36;100.00
11339;BME280;5724;42.684;23.252;2023-01-28T00:25:49;93725.19;;;-2.33;100.00
11339;BME280;5724;42.684;23.252;2023-01-28T00:28:14;93726.78;;;-2.32;100.00
11339;BME280;5724;42.684;23.252;2023-01-28T00:30:40;93725.00;;;-2.37;100.00
11339;BME280;5724;42.684;23.252;2023-01-28T00:33:05;93730.34;;;-2.37;100.00
11339;BME280;5724;42.684;23.252;2023-01-28T00:35:31;93721.59;;;-2.42;100.00
11339;BME280;5724;42.684;23.252;2023-01-28T00:37:56;93717.53;;;-2.21;100.00
11339;BME280;5724;42.684;23.252;2023-01-28T00:40:22;93730.84;;;-2.02;100.00
11339;BME280;5724;42.684;23.252;2023-01-28T00:42:47;93731.03;;;-1.98;100.00
11339;BME280;5724;42.684;23.252;2023-01-28T00:45:13;93731.94;;;-1.89;100.00
11339;BME280;5724;42.684;23.252;2023-01-28T00:47:38;93741.06;;;-1.90;100.00
11339;BME280;5724;42.684;23.252;2023-01-28T00:50:04;93739.06;;;-1.85;100.00
11339;BME280;5724;42.684;23.252;2023-01-28T00:52:29;93741.97;;;-1.81;100.00
11339;BME280;5724;42.684;23.252;2023-01-28T00:54:55;93738.69;;;-1.92;100.00
11339;BME280;5724;42.684;23.252;2023-01-28T00:57:21;93732.09;;;-2.13;100.00
11339;BME280;5724;42.684;23.252;2023-01-28T00:59:47;93741.78;;;-2.31;100.00
11339;BME280;5724;42.684;23.252;2023-01-28T01:02:12;93742.81;;;-2.46;100.00
11339;BME280;5724;42.684;23.252;2023-01-28T01:04:39;93744.69;;;-2.46;100.00
11339;BME280;5724;42.684;23.252;2023-01-28T01:07:05;93736.47;;;-2.50;100.00
11339;BME280;5724;42.684;23.252;2023-01-28T01:09:30;93738.53;;;-2.47;100.00
11339;BME280;5724;42.684;23.252;2023-01-28T01:11:56;93742.38;;;-2.53;100.00
11339;BME280;5724;42.684;23.252;2023-01-28T01:14:21;93739.69;;;-2.53;100.00
11339;BME280;5724;42.684;23.252;2023-01-28T01:16:47;93741.28;;;-2.52;100.00
11339;BME280;5724;42.684;23.252;2023-01-28T01:19:12;93753.06;;;-2.53;100.00
11339;BME280;5724;42.684;23.252;2023-01-28T01:21:38;93739.38;;;-2.65;100.00
11339;BME280;5724;42.684;23.252;2023-01-28T01:24:03;93751.06;;;-2.61;100.00
11339;BME280;5724;42.684;23.252;2023-01-28T01:26:29;93751.66;;;-2.64;100.00
11339;BME280;5724;42.684;23.252;2023-01-28T01:28:54;93758.59;;;-2.63;100.00
11339;BME280;5724;42.684;23.252;2023-01-28T01:31:21;93751.28;;;-2.57;100.00
11339;BME280;5724;42.684;23.252;2023-01-28T01:33:48;93754.75;;;-2.57;100.00
11339;BME280;5724;42.684;23.252;2023-01-28T01:36:15;93759.06;;;-2.61;100.00
11339;BME280;5724;42.684;23.252;2023-01-28T01:38:41;93751.94;;;-2.66;100.00
11339;BME280;5724;42.684;23.252;2023-01-28T01:41:07;93755.91;;;-2.63;100.00
11339;BME280;5724;42.684;23.252;2023-01-28T01:46:12;93744.72;;;-2.65;100.00
11339;BME280;5724;42.684;23.252;2023-01-28T01:48:38;93757.94;;;-2.55;100.00
11339;BME280;5724;42.684;23.252;2023-01-28T01:51:09;93764.66;;;-2.57;100.00
11339;BME280;5724;42.684;23.252;2023-01-28T01:53:39;93741.59;;;-2.72;100.00
11339;BME280;5724;42.684;23.252;2023-01-28T01:56:08;93751.66;;;-2.64;100.00
11339;BME280;5724;42.684;23.252;2023-01-28T01:58:37;93761.97;;;-2.57;100.00
11339;BME280;5724;42.684;23.252;2023-01-28T02:01:05;93761.81;;;-2.47;100.00
11339;BME280;5724;42.684;23.252;2023-01-28T02:03:39;93750.59;;;-2.31;100.00
11339;BME280;5724;42.684;23.252;2023-01-28T02:06:09;93763.72;;;-2.15;100.00
11339;BME280;5724;42.684;23.252;2023-01-28T02:08:35;93765.72;;;-2.07;100.00
11339;BME280;5724;42.684;23.252;2023-01-28T02:11:04;93760.91;;;-1.91;100.00
11339;BME280;5724;42.684;23.252;2023-01-28T02:13:35;93759.69;;;-1.85;100.00
11339;BME280;5724;42.684;23.252;2023-01-28T02:16:03;93770.06;;;-2.11;100.00
11339;BME280;5724;42.684;23.252;2023-01-28T02:18:31;93770.97;;;-2.35;100.00
11339;BME280;5724;42.684;23.252;2023-01-28T02:21:17;93770.34;;;-2.45;100.00
11339;BME280;5724;42.684;23.252;2023-01-28T02:29:37;93774.28;;;-2.56;100.00
11339;BME280;5724;42.684;23.252;2023-01-28T02:32:14;93770.31;;;-2.59;100.00
11339;BME280;5724;42.684;23.252;2023-01-28T02:34:45;93775.41;;;-2.63;100.00
11339;BME280;5724;42.684;23.252;2023-01-28T02:37:24;93776.44;;;-2.58;100.00
11339;BME280;5724;42.684;23.252;2023-01-28T02:39:57;93775.25;;;-2.52;100.00
11339;BME280;5724;42.684;23.252;2023-01-28T02:42:29;93764.31;;;-2.51;100.00
11339;BME280;5724;42.684;23.252;2023-01-28T02:44:56;93762.78;;;-2.57;100.00
11339;BME280;5724;42.684;23.252;2023-01-28T02:47:21;93775.66;;;-2.59;100.00
11339;BME280;5724;42.684;23.252;2023-01-28T02:50:14;93771.59;;;-2.56;100.00
11339;BME280;5724;42.684;23.252;2023-01-28T02:52:59;93777.53;;;-2.60;100.00
11339;BME280;5724;42.684;23.252;2023-01-28T02:55:56;93770.97;;;-2.67;100.00
11339;BME280;5724;42.684;23.252;2023-01-28T03:01:25;93778.00;;;-2.39;100.00
11339;BME280;5724;42.684;23.252;2023-01-28T03:03:58;93778.78;;;-2.19;100.00
11339;BME280;5724;42.684;23.252;2023-01-28T03:06:34;93777.69;;;-2.05;100.00
11339;BME280;5724;42.684;23.252;2023-01-28T03:09:05;93785.97;;;-2.01;100.00
11339;BME280;5724;42.684;23.252;2023-01-28T03:12:17;93779.03;;;-2.02;100.00
11339;BME280;5724;42.684;23.252;2023-01-28T03:15:12;93775.28;;;-1.87;100.00
11339;BME280;5724;42.684;23.252;2023-01-28T03:18:06;93781.78;;;-2.07;100.00
11339;BME280;5724;42.684;23.252;2023-01-28T03:26:49;93788.94;;;-2.54;100.00
11339;BME280;5724;42.684;23.252;2023-01-28T03:29:38;93782.44;;;-2.48;100.00
11339;BME280;5724;42.684;23.252;2023-01-28T03:32:23;93787.00;;;-2.48;100.00
11339;BME280;5724;42.684;23.252;2023-01-28T03:35:09;93770.47;;;-2.69;100.00
11339;BME280;5724;42.684;23.252;2023-01-28T03:37:55;93785.75;;;-2.56;100.00
11339;BME280;5724;42.684;23.252;2023-01-28T03:40:24;93784.22;;;-2.62;100.00
11339;BME280;5724;42.684;23.252;2023-01-28T03:42:50;93791.47;;;-2.63;100.00
11339;BME280;5724;42.684;23.252;2023-01-28T03:45:16;93791.75;;;-2.64;100.00
11339;BME280;5724;42.684;23.252;2023-01-28T03:47:42;93784.88;;;-2.70;100.00
11339;BME280;5724;42.684;23.252;2023-01-28T03:50:09;93788.28;;;-2.65;100.00
11339;BME280;5724;42.684;23.252;2023-01-28T03:52:34;93797.09;;;-2.64;100.00
11339;BME280;5724;42.684;23.252;2023-01-28T03:55:00;93794.38;;;-2.78;100.00
11339;BME280;5724;42.684;23.252;2023-01-28T03:57:26;93799.63;;;-2.54;100.00
11339;BME280;5724;42.684;23.252;2023-01-28T03:59:52;93803.31;;;-2.31;100.00
11339;BME280;5724;42.684;23.252;2023-01-28T04:02:22;93807.41;;;-2.20;100.00
11339;BME280;5724;42.684;23.252;2023-01-28T04:04:48;93797.50;;;-2.19;100.00
11339;BME280;5724;42.684;23.252;2023-01-28T04:07:14;93801.09;;;-2.10;100.00
11339;BME280;5724;42.684;23.252;2023-01-28T04:09:41;93805.44;;;-2.14;100.00
11339;BME280;5724;42.684;23.252;2023-01-28T04:12:08;93807.94;;;-2.37;100.00
11339;BME280;5724;42.684;23.252;2023-01-28T04:14:33;93806.84;;;-2.54;100.00
11339;BME280;5724;42.684;23.252;2023-01-28T04:16:59;93813.72;;;-2.67;100.00
11339;BME280;5724;42.684;23.252;2023-01-28T04:19:25;93811.34;;;-2.88;100.00
11339;BME280;5724;42.684;23.252;2023-01-28T04:21:50;93808.66;;;-2.88;100.00
11339;BME280;5724;42.684;23.252;2023-01-28T04:24:20;93818.19;;;-2.81;100.00
11339;BME280;5724;42.684;23.252;2023-01-28T04:26:45;93816.41;;;-2.86;100.00
11339;BME280;5724;42.684;23.252;2023-01-28T04:29:11;93812.19;;;-2.92;100.00
11339;BME280;5724;42.684;23.252;2023-01-28T04:31:36;93818.97;;;-3.00;100.00
11339;BME280;5724;42.684;23.252;2023-01-28T04:34:02;93811.47;;;-2.98;100.00
11339;BME280;5724;42.684;23.252;2023-01-28T04:36:27;93816.28;;;-3.00;100.00
11339;BME280;5724;42.684;23.252;2023-01-28T04:38:53;93823.25;;;-2.99;100.00
11339;BME280;5724;42.684;23.252;2023-01-28T04:41:18;93827.50;;;-2.98;100.00
11339;BME280;5724;42.684;23.252;2023-01-28T04:43:44;93838.22;;;-2.98;100.00
11339;BME280;5724;42.684;23.252;2023-01-28T04:46:10;93837.41;;;-2.98;100.00
11339;BME280;5724;42.684;23.252;2023-01-28T04:48:35;93845.69;;;-3.00;100.00
11339;BME280;5724;42.684;23.252;2023-01-28T04:51:03;93851.84;;;-2.99;100.00
11339;BME280;5724;42.684;23.252;2023-01-28T04:53:29;93833.22;;;-2.85;100.00
11339;BME280;5724;42.684;23.252;2023-01-28T04:55:55;93847.41;;;-2.66;100.00
11339;BME280;5724;42.684;23.252;2023-01-28T04:58:21;93848.81;;;-2.50;100.00
11339;BME280;5724;42.684;23.252;2023-01-28T05:00:53;93835.19;;;-2.53;100.00
11339;BME280;5724;42.684;23.252;2023-01-28T05:03:19;93853.41;;;-2.37;100.00
11339;BME280;5724;42.684;23.252;2023-01-28T05:05:44;93856.38;;;-2.38;100.00
11339;BME280;5724;42.684;23.252;2023-01-28T05:08:10;93851.66;;;-2.65;100.00
11339;BME280;5724;42.684;23.252;2023-01-28T05:10:35;93847.84;;;-2.78;100.00
11339;BME280;5724;42.684;23.252;2023-01-28T05:13:00;93869.56;;;-2.84;100.00
11339;BME280;5724;42.684;23.252;2023-01-28T05:15:26;93861.84;;;-2.86;100.00
11339;BME280;5724;42.684;23.252;2023-01-28T05:17:53;93852.88;;;-2.95;100.00
11339;BME280;5724;42.684;23.252;2023-01-28T05:20:20;93864.28;;;-2.90;100.00
11339;BME280;5724;42.684;23.252;2023-01-28T05:22:45;93858.44;;;-2.92;100.00
11339;BME280;5724;42.684;23.252;2023-01-28T05:25:12;93854.47;;;-2.94;100.00
11339;BME280;5724;42.684;23.252;2023-01-28T05:27:37;93873.25;;;-2.80;100.00
11339;BME280;5724;42.684;23.252;2023-01-28T05:30:04;93872.25;;;-2.84;100.00
11339;BME280;5724;42.684;23.252;2023-01-28T05:32:30;93875.72;;;-2.84;100.00
11339;BME280;5724;42.684;23.252;2023-01-28T05:34:56;93875.78;;;-2.89;100.00
11339;BME280;5724;42.684;23.252;2023-01-28T05:37:21;93875.03;;;-2.95;100.00
11339;BME280;5724;42.684;23.252;2023-01-28T05:39:47;93876.13;;;-2.96;100.00
11339;BME280;5724;42.684;23.252;2023-01-28T05:42:12;93883.41;;;-3.01;100.00
11339;BME280;5724;42.684;23.252;2023-01-28T05:44:40;93877.53;;;-3.03;100.00
11339;BME280;5724;42.684;23.252;2023-01-28T05:47:05;93886.41;;;-2.84;100.00
11339;BME280;5724;42.684;23.252;2023-01-28T05:49:31;93885.94;;;-2.67;100.00
11339;BME280;5724;42.684;23.252;2023-01-28T05:51:56;93892.16;;;-2.53;100.00
11339;BME280;5724;42.684;23.252;2023-01-28T05:54:22;93890.56;;;-2.35;100.00
11339;BME280;5724;42.684;23.252;2023-01-28T05:56:47;93892.31;;;-2.25;100.00
11339;BME280;5724;42.684;23.252;2023-01-28T05:59:13;93893.41;;;-2.26;100.00
11339;BME280;5724;42.684;23.252;2023-01-28T06:01:38;93891.47;;;-2.21;100.00
11339;BME280;5724;42.684;23.252;2023-01-28T06:04:04;93894.19;;;-2.07;100.00
11339;BME280;5724;42.684;23.252;2023-01-28T06:06:30;93891.31;;;-2.48;100.00
11339;BME280;5724;42.684;23.252;2023-01-28T06:08:55;93909.13;;;-2.63;100.00
11339;BME280;5724;42.684;23.252;2023-01-28T06:11:21;93920.53;;;-2.76;100.00
11339;BME280;5724;42.684;23.252;2023-01-28T06:13:46;93912.28;;;-2.79;100.00
11339;BME280;5724;42.684;23.252;2023-01-28T06:16:12;93894.97;;;-3.06;100.00
11339;BME280;5724;42.684;23.252;2023-01-28T06:18:37;93920.66;;;-2.86;100.00
11339;BME280;5724;42.684;23.252;2023-01-28T06:21:03;93923.03;;;-2.84;100.00
11339;BME280;5724;42.684;23.252;2023-01-28T06:23:29;93924.63;;;-2.83;100.00
11339;BME280;5724;42.684;23.252;2023-01-28T06:25:55;93936.41;;;-2.84;100.00
11339;BME280;5724;42.684;23.252;2023-01-28T06:28:21;93919.41;;;-2.94;100.00
11339;BME280;5724;42.684;23.252;2023-01-28T06:30:48;93935.81;;;-2.81;100.00
11339;BME280;5724;42.684;23.252;2023-01-28T06:33:14;93936.91;;;-2.82;100.00
11339;BME280;5724;42.684;23.252;2023-01-28T06:35:39;93942.53;;;-2.84;100.00
11339;BME280;5724;42.684;23.252;2023-01-28T06:38:05;93940.94;;;-2.85;100.00
11339;BME280;5724;42.684;23.252;2023-01-28T06:40:30;93950.56;;;-2.84;100.00
11339;BME280;5724;42.684;23.252;2023-01-28T06:42:56;93950.06;;;-2.86;100.00
11339;BME280;5724;42.684;23.252;2023-01-28T06:45:21;93948.78;;;-2.94;100.00
11339;BME280;5724;42.684;23.252;2023-01-28T06:47:47;93960.25;;;-2.88;100.00
11339;BME280;5724;42.684;23.252;2023-01-28T06:50:12;93948.94;;;-3.09;100.00
11339;BME280;5724;42.684;23.252;2023-01-28T06:52:38;93967.50;;;-2.94;100.00
11339;BME280;5724;42.684;23.252;2023-01-28T06:55:04;93975.53;;;-2.94;100.00
11339;BME280;5724;42.684;23.252;2023-01-28T06:57:29;93970.69;;;-2.92;100.00
11339;BME280;5724;42.684;23.252;2023-01-28T06:59:55;93983.25;;;-2.92;100.00
11339;BME280;5724;42.684;23.252;2023-01-28T07:02:20;93974.16;;;-2.91;100.00
11339;BME280;5724;42.684;23.252;2023-01-28T07:04:46;93977.63;;;-2.91;100.00
11339;BME280;5724;42.684;23.252;2023-01-28T07:07:11;93984.34;;;-2.93;100.00
11339;BME280;5724;42.684;23.252;2023-01-28T07:09:37;93988.59;;;-2.92;100.00
11339;BME280;5724;42.684;23.252;2023-01-28T07:12:02;93987.69;;;-2.82;100.00
11339;BME280;5724;42.684;23.252;2023-01-28T07:14:30;93991.97;;;-2.81;100.00
11339;BME280;5724;42.684;23.252;2023-01-28T07:16:55;94004.34;;;-2.91;100.00
11339;BME280;5724;42.684;23.252;2023-01-28T07:19:21;94006.75;;;-2.89;100.00
11339;BME280;5724;42.684;23.252;2023-01-28T07:21:46;93996.06;;;-2.89;100.00
11339;BME280;5724;42.684;23.252;2023-01-28T07:24:12;93999.00;;;-2.91;100.00
11339;BME280;5724;42.684;23.252;2023-01-28T07:26:37;94008.56;;;-2.84;100.00
11339;BME280;5724;42.684;23.252;2023-01-28T07:29:02;94013.41;;;-2.86;100.00
11339;BME280;5724;42.684;23.252;2023-01-28T07:31:28;94014.72;;;-2.84;100.00
11339;BME280;5724;42.684;23.252;2023-01-28T07:33:54;93995.53;;;-2.91;100.00
11339;BME280;5724;42.684;23.252;2023-01-28T07:36:19;94003.00;;;-2.88;100.00
11339;BME280;5724;42.684;23.252;2023-01-28T07:38:45;94010.16;;;-2.83;100.00
11339;BME280;5724;42.684;23.252;2023-01-28T07:41:10;94013.31;;;-2.76;100.00
11339;BME280;5724;42.684;23.252;2023-01-28T07:43:35;94014.31;;;-2.72;100.00
11339;BME280;5724;42.684;23.252;2023-01-28T07:46:01;94022.22;;;-2.62;100.00
11339;BME280;5724;42.684;23.252;2023-01-28T07:48:27;94029.16;;;-2.61;100.00
11339;BME280;5724;42.684;23.252;2023-01-28T07:50:52;94031.06;;;-2.62;100.00
11339;BME280;5724;42.684;23.252;2023-01-28T07:53:18;94030.84;;;-2.65;100.00
11339;BME280;5724;42.684;23.252;2023-01-28T07:55:44;94034.53;;;-2.61;100.00
11339;BME280;5724;42.684;23.252;2023-01-28T07:58:10;94041.75;;;-2.62;100.00
11339;BME280;5724;42.684;23.252;2023-01-28T08:00:37;94034.97;;;-2.54;100.00
11339;BME280;5724;42.684;23.252;2023-01-28T08:03:05;94046.97;;;-2.51;100.00
11339;BME280;5724;42.684;23.252;2023-01-28T08:05:43;94042.72;;;-2.52;100.00
11339;BME280;5724;42.684;23.252;2023-01-28T08:08:09;94047.44;;;-2.44;100.00
11339;BME280;5724;42.684;23.252;2023-01-28T08:10:35;94047.16;;;-2.43;100.00
11339;BME280;5724;42.684;23.252;2023-01-28T08:13:01;94046.66;;;-2.45;100.00
11339;BME280;5724;42.684;23.252;2023-01-28T08:15:28;94059.22;;;-2.45;100.00
11339;BME280;5724;42.684;23.252;2023-01-28T08:17:54;94057.81;;;-2.38;100.00
11339;BME280;5724;42.684;23.252;2023-01-28T08:20:21;94050.88;;;-2.39;100.00
11339;BME280;5724;42.684;23.252;2023-01-28T08:22:47;94058.09;;;-2.39;100.00
11339;BME280;5724;42.684;23.252;2023-01-28T08:25:14;94066.63;;;-2.37;100.00
11339;BME280;5724;42.684;23.252;2023-01-28T08:27:39;94059.91;;;-2.35;100.00
11339;BME280;5724;42.684;23.252;2023-01-28T08:30:06;94063.06;;;-2.27;100.00
11339;BME280;5724;42.684;23.252;2023-01-28T08:32:33;94053.94;;;-2.26;100.00
11339;BME280;5724;42.684;23.252;2023-01-28T08:34:59;94060.31;;;-2.22;100.00
11339;BME280;5724;42.684;23.252;2023-01-28T08:37:25;94050.25;;;-2.31;100.00
11339;BME280;5724;42.684;23.252;2023-01-28T08:39:50;94058.09;;;-2.15;100.00
11339;BME280;5724;42.684;23.252;2023-01-28T08:42:16;94059.38;;;-2.13;100.00
11339;BME280;5724;42.684;23.252;2023-01-28T08:44:41;94062.06;;;-2.13;100.00
11339;BME280;5724;42.684;23.252;2023-01-28T08:47:07;94070.63;;;-2.11;100.00
11339;BME280;5724;42.684;23.252;2023-01-28T08:49:32;94067.06;;;-2.06;100.00
11339;BME280;5724;42.684;23.252;2023-01-28T08:51:58;94056.88;;;-2.04;100.00
11339;BME280;5724;42.684;23.252;2023-01-28T08:54:23;94067.88;;;-2.06;100.00
11339;BME280;5724;42.684;23.252;2023-01-28T08:56:49;94060.59;;;-2.00;100.00
11339;BME280;5724;42.684;23.252;2023-01-28T08:59:16;94071.50;;;-1.96;100.00
11339;BME280;5724;42.684;23.252;2023-01-28T09:01:41;94070.13;;;-1.94;100.00
11339;BME280;5724;42.684;23.252;2023-01-28T09:04:07;94057.13;;;-2.00;100.00
11339;BME280;5724;42.684;23.252;2023-01-28T09:06:32;94067.97;;;-1.92;100.00
11339;BME280;5724;42.684;23.252;2023-01-28T09:08:59;94074.47;;;-1.98;100.00
11339;BME280;5724;42.684;23.252;2023-01-28T09:11:25;94064.84;;;-1.99;100.00
11339;BME280;5724;42.684;23.252;2023-01-28T09:13:51;94072.81;;;-1.94;100.00
11339;BME280;5724;42.684;23.252;2023-01-28T09:16:16;94074.44;;;-1.93;100.00
11339;BME280;5724;42.684;23.252;2023-01-28T09:18:42;94080.91;;;-1.99;100.00
11339;BME280;5724;42.684;23.252;2023-01-28T09:21:26;94073.69;;;-1.98;100.00
11339;BME280;5724;42.684;23.252;2023-01-28T09:23:51;94085.81;;;-2.06;100.00
11339;BME280;5724;42.684;23.252;2023-01-28T09:26:19;94076.94;;;-2.02;100.00
11339;BME280;5724;42.684;23.252;2023-01-28T09:28:46;94065.34;;;-1.97;100.00
11339;BME280;5724;42.684;23.252;2023-01-28T09:31:11;94071.50;;;-1.96;100.00
11339;BME280;5724;42.684;23.252;2023-01-28T09:33:38;94077.09;;;-1.93;100.00
11339;BME280;5724;42.684;23.252;2023-01-28T09:36:06;94050.81;;;-2.10;100.00
11339;BME280;5724;42.684;23.252;2023-01-28T09:38:32;94076.06;;;-1.97;100.00
11339;BME280;5724;42.684;23.252;2023-01-28T09:41:00;94073.09;;;-1.95;100.00
11339;BME280;5724;42.684;23.252;2023-01-28T09:46:14;94057.97;;;-2.05;100.00
11339;BME280;5724;42.684;23.252;2023-01-28T09:48:46;94074.88;;;-2.10;100.00
11339;BME280;5724;42.684;23.252;2023-01-28T09:51:40;94069.69;;;-2.01;100.00
11339;BME280;5724;42.684;23.252;2023-01-28T09:56:53;94059.03;;;-2.06;100.00
11339;BME280;5724;42.684;23.252;2023-01-28T09:59:22;94085.63;;;-1.91;100.00
11339;BME280;5724;42.684;23.252;2023-01-28T10:01:53;94072.75;;;-1.89;100.00
11339;BME280;5724;42.684;23.252;2023-01-28T10:04:58;94067.84;;;-1.82;100.00
11339;BME280;5724;42.684;23.252;2023-01-28T10:08:25;94078.69;;;-1.92;100.00
11339;BME280;5724;42.684;23.252;2023-01-28T10:10:43;94080.84;;;-1.94;100.00
11339;BME280;5724;42.684;23.252;2023-01-28T10:13:16;94072.13;;;-2.05;100.00
11339;BME280;5724;42.684;23.252;2023-01-28T10:15:49;94070.22;;;-1.99;100.00
11339;BME280;5724;42.684;23.252;2023-01-28T10:18:28;94060.59;;;-2.00;100.00
11339;BME280;5724;42.684;23.252;2023-01-28T10:20:59;94061.97;;;-2.03;100.00
11339;BME280;5724;42.684;23.252;2023-01-28T10:26:03;94062.69;;;-1.97;100.00
11339;BME280;5724;42.684;23.252;2023-01-28T10:28:33;94056.25;;;-1.96;100.00
11339;BME280;5724;42.684;23.252;2023-01-28T10:30:59;94074.63;;;-1.89;100.00
11339;BME280;5724;42.684;23.252;2023-01-28T10:33:31;94066.94;;;-1.96;100.00
11339;BME280;5724;42.684;23.252;2023-01-28T10:35:59;94069.47;;;-2.05;100.00
11339;BME280;5724;42.684;23.252;2023-01-28T10:38:26;94075.78;;;-1.95;100.00
11339;BME280;5724;42.684;23.252;2023-01-28T10:40:54;94054.66;;;-1.97;100.00
11339;BME280;5724;42.684;23.252;2023-01-28T10:43:23;94063.28;;;-1.81;100.00
11339;BME280;5724;42.684;23.252;2023-01-28T10:46:09;94078.69;;;-1.92;100.00
11339;BME280;5724;42.684;23.252;2023-01-28T10:51:35;94069.75;;;-2.06;100.00
11339;BME280;5724;42.684;23.252;2023-01-28T10:54:02;94068.03;;;-1.97;100.00
11339;BME280;5724;42.684;23.252;2023-01-28T10:56:30;94056.81;;;-1.99;100.00
11339;BME280;5724;42.684;23.252;2023-01-28T10:59:04;94060.44;;;-1.90;100.00
11339;BME280;5724;42.684;23.252;2023-01-28T11:01:41;94063.94;;;-1.89;100.00
11339;BME280;5724;42.684;23.252;2023-01-28T11:04:16;94071.66;;;-1.88;100.00
11339;BME280;5724;42.684;23.252;2023-01-28T11:06:51;94066.75;;;-1.81;100.00
11339;BME280;5724;42.684;23.252;2023-01-28T11:09:23;94061.13;;;-1.79;100.00
11339;BME280;5724;42.684;23.252;2023-01-28T11:11:48;94076.69;;;-1.81;100.00
11339;BME280;5724;42.684;23.252;2023-01-28T11:14:25;94061.91;;;-1.79;100.00
11339;BME280;5724;42.684;23.252;2023-01-28T11:16:53;94058.50;;;-1.65;100.00
11339;BME280;5724;42.684;23.252;2023-01-28T11:19:22;94061.13;;;-1.60;100.00
11339;BME280;5724;42.684;23.252;2023-01-28T11:21:53;94060.63;;;-1.62;100.00
11339;BME280;5724;42.684;23.252;2023-01-28T11:24:26;94065.97;;;-1.62;100.00
11339;BME280;5724;42.684;23.252;2023-01-28T11:26:55;94064.59;;;-1.60;100.00
11339;BME280;5724;42.684;23.252;2023-01-28T11:29:27;94047.72;;;-1.60;100.00
11339;BME280;5724;42.684;23.252;2023-01-28T11:31:55;94064.81;;;-1.56;100.00
11339;BME280;5724;42.684;23.252;2023-01-28T11:34:26;94046.00;;;-1.51;100.00
11339;BME280;5724;42.684;23.252;2023-01-28T11:37:01;94048.97;;;-1.53;100.00
11339;BME280;5724;42.684;23.252;2023-01-28T11:39:28;94057.22;;;-1.49;100.00
11339;BME280;5724;42.684;23.252;2023-01-28T11:42:02;94052.00;;;-1.40;100.00
11339;BME280;5724;42.684;23.252;2023-01-28T11:44:35;94056.19;;;-1.34;100.00
11339;BME280;5724;42.684;23.252;2023-01-28T11:52:23;94042.91;;;-1.26;99.07
11339;BME280;5724;42.684;23.252;2023-01-28T11:55:21;94033.75;;;-1.38;98.12
11339;BME280;5724;42.684;23.252;2023-01-28T12:06:27;94066.16;;;-1.02;97.74
11339;BME280;5724;42.684;23.252;2023-01-28T12:09:34;94053.78;;;-1.17;97.00
11339;BME280;5724;42.684;23.252;2023-01-28T12:17:04;94057.25;;;-1.17;97.71
11339;BME280;5724;42.684;23.252;2023-01-28T12:23:23;94065.22;;;-1.11;98.95
11339;BME280;5724;42.684;23.252;2023-01-28T12:28:07;94053.41;;;-1.10;99.89
11339;BME280;5724;42.684;23.252;2023-01-28T12:43:44;94058.50;;;-1.28;100.00
11339;BME280;5724;42.684;23.252;2023-01-28T12:51:51;94068.28;;;-1.37;100.00
11339;BME280;5724;42.684;23.252;2023-01-28T12:54:28;94085.84;;;-1.45;100.00
11339;BME280;5724;42.684;23.252;2023-01-28T12:56:57;94082.22;;;-1.35;100.00
11339;BME280;5724;42.684;23.252;2023-01-28T12:59:28;94069.38;;;-1.38;100.00
11339;BME280;5724;42.684;23.252;2023-01-28T13:04:34;94080.97;;;-1.42;100.00
11339;BME280;5724;42.684;23.252;2023-01-28T13:07:17;94076.03;;;-1.35;100.00
11339;BME280;5724;42.684;23.252;2023-01-28T13:09:53;94064.50;;;-1.36;100.00
11339;BME280;5724;42.684;23.252;2023-01-28T13:12:23;94084.59;;;-1.33;100.00
11339;BME280;5724;42.684;23.252;2023-01-28T13:14:49;94087.41;;;-1.25;100.00
11339;BME280;5724;42.684;23.252;2023-01-28T13:17:29;94095.72;;;-1.26;100.00
11339;BME280;5724;42.684;23.252;2023-01-28T13:19:57;94079.44;;;-1.30;100.00
11339;BME280;5724;42.684;23.252;2023-01-28T13:22:32;94103.25;;;-1.28;100.00
11339;BME280;5724;42.684;23.252;2023-01-28T13:25:23;94075.38;;;-1.46;100.00
11339;BME280;5724;42.684;23.252;2023-01-28T13:28:04;94103.66;;;-1.35;100.00
11339;BME280;5724;42.684;23.252;2023-01-28T13:30:32;94093.47;;;-1.38;100.00
11339;BME280;5724;42.684;23.252;2023-01-28T13:33:04;94098.41;;;-1.45;100.00
11339;BME280;5724;42.684;23.252;2023-01-28T13:35:32;94099.88;;;-1.34;100.00
11339;BME280;5724;42.684;23.252;2023-01-28T13:38:06;94105.22;;;-1.34;100.00
11339;BME280;5724;42.684;23.252;2023-01-28T13:40:33;94104.66;;;-1.31;100.00
11339;BME280;5724;42.684;23.252;2023-01-28T13:46:02;94099.00;;;-1.48;100.00
11339;BME280;5724;42.684;23.252;2023-01-28T13:51:17;94095.38;;;-1.57;100.00
11339;BME280;5724;42.684;23.252;2023-01-28T13:54:13;94110.28;;;-1.51;100.00
11339;BME280;5724;42.684;23.252;2023-01-28T13:56:41;94120.06;;;-1.41;100.00
11339;BME280;5724;42.684;23.252;2023-01-28T14:07:43;94126.88;;;-0.93;99.03
11339;BME280;5724;42.684;23.252;2023-01-28T14:13:27;94128.63;;;-1.21;99.06
11339;BME280;5724;42.684;23.252;2023-01-28T14:18:43;94127.94;;;-1.69;100.00
11339;BME280;5724;42.684;23.252;2023-01-28T14:21:16;94135.91;;;-1.64;100.00
11339;BME280;5724;42.684;23.252;2023-01-28T14:23:46;94147.19;;;-1.67;100.00
11339;BME280;5724;42.684;23.252;2023-01-28T14:26:26;94154.25;;;-1.76;100.00
11339;BME280;5724;42.684;23.252;2023-01-28T14:31:37;94145.03;;;-1.89;100.00
11339;BME280;5724;42.684;23.252;2023-01-28T14:34:30;94161.50;;;-1.77;100.00
11339;BME280;5724;42.684;23.252;2023-01-28T14:37:11;94150.22;;;-1.97;100.00
11339;BME280;5724;42.684;23.252;2023-01-28T14:45:10;94151.69;;;-1.86;100.00
11339;BME280;5724;42.684;23.252;2023-01-28T14:55:17;94156.38;;;-1.97;100.00